Time;durP1;ratioP1;P1;durP2;ratioP2;P2;SDS_P1;SDS_P2;PMS_P1;PMS_P2;Temp;Humidity;BMP_temperature;BMP_pressure;BME280_temperature;BME280_humidity;BME280_pressure;Samples;Min_cycle;Max_cycle;Signal;HPM_P1;HPM_P2
2022/01/05 00:00:30;;;;;;;3.60;1.15;;;16.90;46.80;;;;;;5058767;28;20021;-38
2022/01/05 00:02:57;;;;;;;5.07;1.40;;;16.80;46.90;;;;;;5059556;28;20479;-40
2022/01/05 00:05:23;;;;;;;3.58;1.30;;;16.80;47.50;;;;;;5059967;28;20506;-39
2022/01/05 00:07:50;;;;;;;3.97;1.20;;;16.80;47.00;;;;;;5061087;28;20056;-39
2022/01/05 00:10:17;;;;;;;3.30;1.25;;;16.80;47.00;;;;;;5044963;28;20017;-39
2022/01/05 00:12:43;;;;;;;2.95;1.30;;;16.70;47.10;;;;;;5062931;28;20025;-39
2022/01/05 00:15:09;;;;;;;3.72;1.40;;;16.70;47.10;;;;;;5061038;28;20487;-38
2022/01/05 00:17:35;;;;;;;3.30;1.25;;;16.60;47.10;;;;;;5057983;28;20013;-41
2022/01/05 00:20:03;;;;;;;3.33;1.30;;;16.60;47.20;;;;;;5058083;28;20480;-40
2022/01/05 00:22:30;;;;;;;3.33;1.30;;;16.60;47.20;;;;;;5059245;28;20021;-39
2022/01/05 00:24:56;;;;;;;2.47;1.20;;;16.50;47.20;;;;;;5060088;28;20081;-40
2022/01/05 00:27:25;;;;;;;2.78;1.30;;;16.50;47.30;;;;;;5059534;28;20032;-42
2022/01/05 00:29:54;;;;;;;2.85;1.20;;;16.40;47.40;;;;;;5040753;28;20567;-39
2022/01/05 00:32:21;;;;;;;3.03;1.38;;;16.40;47.50;;;;;;5057224;28;20554;-39
2022/01/05 00:34:47;;;;;;;2.75;1.50;;;16.30;47.50;;;;;;5058046;28;20025;-40
2022/01/05 00:37:13;;;;;;;3.17;1.20;;;16.30;47.50;;;;;;5021691;28;20498;-37
2022/01/05 00:39:39;;;;;;;4.75;1.55;;;16.30;47.50;;;;;;5024072;28;20044;-36
2022/01/05 00:42:05;;;;;;;2.60;1.10;;;16.30;47.60;;;;;;5058132;28;20028;-36
2022/01/05 00:44:31;;;;;;;3.63;1.48;;;16.20;47.60;;;;;;5038730;28;20391;-36
2022/01/05 00:46:56;;;;;;;4.97;1.63;;;16.20;47.70;;;;;;5038464;28;20016;-36
2022/01/05 00:49:22;;;;;;;4.05;1.48;;;16.20;47.70;;;;;;5055274;28;20021;-35
2022/01/05 00:51:48;;;;;;;4.00;1.60;;;16.10;47.70;;;;;;5037861;28;20078;-36
2022/01/05 00:54:14;;;;;;;4.20;1.20;;;16.10;47.90;;;;;;5055295;28;20013;-38
2022/01/05 00:56:40;;;;;;;5.13;1.77;;;16.10;47.90;;;;;;5055948;28;20017;-37
2022/01/05 00:59:07;;;;;;;3.42;1.45;;;16.10;47.90;;;;;;5057106;28;20013;-37
2022/01/05 01:01:33;;;;;;;4.13;1.40;;;16.00;47.90;;;;;;5057243;28;20020;-36
2022/01/05 01:03:59;;;;;;;3.35;1.10;;;16.00;47.90;;;;;;5037764;28;20018;-40
2022/01/05 01:06:25;;;;;;;2.85;1.10;;;16.00;48.10;;;;;;5054963;28;20024;-35
2022/01/05 01:08:51;;;;;;;4.95;1.52;;;15.90;48.10;;;;;;5055237;28;20112;-37
2022/01/05 01:11:17;;;;;;;4.00;1.48;;;15.90;48.00;;;;;;5055191;28;20021;-35
2022/01/05 01:13:44;;;;;;;2.63;1.20;;;15.90;48.20;;;;;;5037631;28;20553;-38
2022/01/05 01:16:10;;;;;;;3.90;1.58;;;15.90;48.20;;;;;;5038581;28;20029;-38
2022/01/05 01:18:36;;;;;;;3.10;1.20;;;15.90;48.30;;;;;;5037423;28;20029;-38
2022/01/05 01:21:03;;;;;;;3.63;1.42;;;15.80;48.30;;;;;;5037128;28;20349;-38
2022/01/05 01:23:29;;;;;;;3.97;1.30;;;15.80;48.50;;;;;;5055102;28;20084;-38
2022/01/05 01:25:55;;;;;;;2.72;1.27;;;15.80;48.50;;;;;;5054682;28;20024;-37
2022/01/05 01:28:21;;;;;;;3.65;1.27;;;15.70;48.50;;;;;;5054869;28;20021;-37
2022/01/05 01:30:47;;;;;;;3.47;1.30;;;15.70;48.50;;;;;;5054839;28;20020;-36
2022/01/05 01:33:14;;;;;;;3.90;1.30;;;15.70;48.60;;;;;;5054877;28;20017;-36
2022/01/05 01:35:41;;;;;;;3.67;1.50;;;15.70;48.70;;;;;;5054413;28;20032;-36
2022/01/05 01:38:07;;;;;;;2.80;1.33;;;15.70;48.60;;;;;;5054700;28;20051;-36
2022/01/05 01:40:33;;;;;;;3.75;1.30;;;15.60;48.50;;;;;;5054746;28;20484;-36
2022/01/05 01:42:59;;;;;;;3.65;1.48;;;15.60;48.30;;;;;;5054760;28;20017;-36
2022/01/05 01:45:27;;;;;;;3.08;1.23;;;15.60;49.10;;;;;;5054284;28;20009;-37
2022/01/05 01:47:53;;;;;;;3.63;1.10;;;15.50;48.10;;;;;;5054175;28;20479;-36
2022/01/05 01:50:18;;;;;;;4.05;1.33;;;15.50;47.90;;;;;;5054347;28;20028;-36
2022/01/05 01:52:45;;;;;;;5.30;1.50;;;15.50;47.80;;;;;;5054428;28;20025;-36
2022/01/05 01:55:10;;;;;;;5.45;1.73;;;15.50;47.90;;;;;;5053868;28;20048;-36
2022/01/05 01:57:38;;;;;;;3.67;1.30;;;15.50;48.00;;;;;;5054080;28;20487;-36
2022/01/05 02:00:04;;;;;;;5.65;1.95;;;15.40;48.70;;;;;;5054100;28;20028;-36
2022/01/05 02:02:30;;;;;;;3.00;1.40;;;15.40;48.30;;;;;;5053506;28;20021;-36
2022/01/05 02:04:57;;;;;;;2.38;1.30;;;15.40;48.30;;;;;;5054262;28;20033;-36
2022/01/05 02:07:23;;;;;;;5.15;1.77;;;15.30;48.40;;;;;;5035993;28;20020;-42
2022/01/05 02:09:50;;;;;;;3.65;1.52;;;15.30;48.50;;;;;;5054143;28;20039;-36
2022/01/05 02:12:17;;;;;;;4.13;1.63;;;15.30;48.50;;;;;;5054310;28;20016;-36
2022/01/05 02:14:43;;;;;;;3.63;1.48;;;15.20;48.40;;;;;;5053706;28;20464;-36
2022/01/05 02:17:18;;;;;;;3.90;1.33;;;15.30;48.50;;;;;;5053735;28;20151;-36
2022/01/05 02:19:44;;;;;;;4.57;1.52;;;15.20;48.40;;;;;;5053979;28;20070;-38
2022/01/05 02:22:10;;;;;;;4.47;1.40;;;15.20;48.30;;;;;;5054101;28;20087;-38
2022/01/05 02:24:38;;;;;;;3.75;1.40;;;15.20;48.30;;;;;;5053933;28;20051;-38
2022/01/05 02:27:04;;;;;;;4.63;1.30;;;15.20;48.50;;;;;;5053560;28;20460;-37
2022/01/05 02:29:30;;;;;;;4.03;1.45;;;15.20;48.50;;;;;;5053822;28;20082;-38
2022/01/05 02:32:00;;;;;;;4.80;1.60;;;15.10;48.50;;;;;;5053969;28;20519;-37
2022/01/05 02:34:25;;;;;;;4.50;1.45;;;15.10;48.50;;;;;;5054061;28;20025;-37
2022/01/05 02:36:51;;;;;;;3.95;1.33;;;15.10;48.50;;;;;;5054178;28;20365;-38
2022/01/05 02:39:18;;;;;;;3.45;1.60;;;15.10;48.60;;;;;;5055178;28;20025;-36
2022/01/05 02:41:44;;;;;;;4.57;1.50;;;15.00;48.60;;;;;;5055076;28;20017;-36
2022/01/05 02:44:10;;;;;;;4.25;1.50;;;15.10;48.60;;;;;;5054981;28;20073;-36
2022/01/05 02:46:36;;;;;;;3.58;1.30;;;15.00;48.70;;;;;;5054955;28;20033;-36
2022/01/05 02:49:04;;;;;;;3.42;1.40;;;15.00;48.50;;;;;;5054884;28;20472;-36
2022/01/05 02:51:30;;;;;;;4.32;1.40;;;15.00;48.60;;;;;;5055610;28;20467;-37
2022/01/05 02:53:56;;;;;;;4.60;1.40;;;15.00;48.60;;;;;;5055246;28;20024;-37
2022/01/05 02:56:23;;;;;;;3.50;1.23;;;15.00;48.70;;;;;;5054036;28;20060;-36
2022/01/05 02:58:50;;;;;;;4.93;1.27;;;15.00;48.50;;;;;;5053621;28;20013;-38
2022/01/05 03:01:16;;;;;;;4.72;1.70;;;15.00;48.50;;;;;;5035052;28;20031;-38
2022/01/05 03:03:43;;;;;;;4.35;1.70;;;15.00;48.60;;;;;;5053439;28;20016;-39
2022/01/05 03:06:10;;;;;;;3.47;1.33;;;15.00;48.60;;;;;;5052953;28;20100;-39
2022/01/05 03:08:36;;;;;;;3.47;1.70;;;14.90;48.70;;;;;;5052928;28;20453;-37
2022/01/05 03:11:03;;;;;;;4.30;1.33;;;14.90;48.60;;;;;;5035097;28;20108;-38
2022/01/05 03:13:29;;;;;;;5.00;1.77;;;14.90;48.80;;;;;;5035269;28;20025;-37
2022/01/05 03:15:56;;;;;;;4.95;1.65;;;14.90;49.10;;;;;;5035671;28;20040;-38
2022/01/05 03:18:22;;;;;;;4.18;1.40;;;14.90;49.00;;;;;;5035243;28;20017;-39
2022/01/05 03:20:49;;;;;;;3.72;1.30;;;14.80;49.00;;;;;;5035180;28;20025;-39
2022/01/05 03:23:15;;;;;;;3.45;1.40;;;14.80;48.90;;;;;;5053019;28;20028;-38
2022/01/05 03:25:42;;;;;;;4.13;1.30;;;14.80;49.00;;;;;;5053132;28;20372;-38
2022/01/05 03:28:08;;;;;;;4.10;1.50;;;14.90;49.00;;;;;;5035363;28;20021;-41
2022/01/05 03:30:35;;;;;;;4.82;1.52;;;14.90;49.10;;;;;;5052986;28;20021;-45
2022/01/05 03:35:31;;;;;;;3.92;1.38;;;14.90;48.90;;;;;;5055870;28;20040;-43
2022/01/05 03:37:57;;;;;;;4.88;1.80;;;14.90;48.70;;;;;;5056155;28;20013;-37
2022/01/05 03:40:24;;;;;;;4.07;1.52;;;14.90;49.30;;;;;;5056451;28;20012;-35
2022/01/05 03:42:51;;;;;;;4.18;1.40;;;14.90;48.60;;;;;;5055937;28;20018;-37
2022/01/05 03:45:17;;;;;;;4.63;1.58;;;14.90;48.60;;;;;;5055924;28;20021;-36
2022/01/05 03:47:44;;;;;;;3.05;1.50;;;14.90;48.60;;;;;;5055290;28;20028;-36
2022/01/05 03:50:11;;;;;;;4.07;1.40;;;14.90;48.40;;;;;;5038152;28;20021;-36
2022/01/05 03:52:38;;;;;;;3.88;1.55;;;14.90;48.60;;;;;;5055527;28;20021;-35
2022/01/05 03:55:05;;;;;;;5.07;1.73;;;14.90;48.60;;;;;;5054827;28;20069;-37
2022/01/05 03:57:32;;;;;;;3.72;1.45;;;14.80;48.40;;;;;;5055244;28;20017;-35
2022/01/05 03:59:58;;;;;;;4.78;1.60;;;14.90;48.50;;;;;;5054998;28;20017;-36
2022/01/05 04:02:25;;;;;;;3.67;1.45;;;14.80;48.50;;;;;;5055167;28;20017;-35
2022/01/05 04:04:51;;;;;;;3.28;1.30;;;14.90;48.60;;;;;;5055203;28;20017;-37
2022/01/05 04:07:20;;;;;;;5.13;1.60;;;14.80;48.60;;;;;;5055593;28;20043;-37
2022/01/05 04:09:46;;;;;;;3.33;1.15;;;14.80;48.60;;;;;;5055475;28;20033;-36
2022/01/05 04:12:11;;;;;;;4.53;1.30;;;14.80;48.60;;;;;;5037492;28;20017;-35
2022/01/05 04:14:37;;;;;;;4.45;1.33;;;14.80;48.60;;;;;;5020818;28;20364;-35
2022/01/05 04:17:04;;;;;;;4.45;1.60;;;14.80;48.60;;;;;;5055626;28;20041;-35
2022/01/05 04:19:31;;;;;;;4.38;1.70;;;14.80;48.70;;;;;;5055551;28;20005;-35
2022/01/05 04:21:57;;;;;;;3.70;1.40;;;14.80;48.60;;;;;;5055206;28;20071;-36
2022/01/05 04:24:23;;;;;;;4.32;1.48;;;14.80;48.50;;;;;;5055802;28;20036;-35
2022/01/05 04:26:49;;;;;;;4.22;1.48;;;14.70;48.60;;;;;;5041506;28;20100;-35
2022/01/05 04:29:16;;;;;;;3.75;1.33;;;14.80;48.60;;;;;;5059013;28;20017;-35
2022/01/05 04:31:43;;;;;;;5.43;1.40;;;14.70;48.50;;;;;;5041566;28;20017;-36
2022/01/05 04:34:09;;;;;;;3.45;1.35;;;14.70;48.60;;;;;;5058633;28;20013;-36
2022/01/05 04:36:35;;;;;;;6.55;1.38;;;14.80;48.50;;;;;;5040448;28;20121;-35
2022/01/05 04:39:01;;;;;;;4.95;1.42;;;14.70;48.40;;;;;;5058418;28;20433;-35
2022/01/05 04:41:27;;;;;;;3.97;1.60;;;14.70;48.50;;;;;;5040634;28;20063;-35
2022/01/05 04:43:53;;;;;;;3.95;1.60;;;14.70;48.60;;;;;;5058553;28;20013;-35
2022/01/05 04:46:18;;;;;;;4.00;1.50;;;14.70;48.50;;;;;;5058497;28;20468;-35
2022/01/05 04:48:44;;;;;;;3.40;1.40;;;14.80;48.50;;;;;;5040615;28;20036;-36
2022/01/05 04:51:10;;;;;;;3.28;1.23;;;14.70;48.40;;;;;;5058596;28;20458;-35
2022/01/05 04:53:37;;;;;;;4.68;1.58;;;14.70;48.30;;;;;;5058461;28;20013;-35
2022/01/05 04:56:03;;;;;;;4.88;1.42;;;14.70;48.30;;;;;;5040221;28;20053;-35
2022/01/05 04:58:30;;;;;;;2.97;1.27;;;14.70;48.40;;;;;;5040378;28;20025;-35
2022/01/05 05:00:56;;;;;;;4.72;1.67;;;14.80;48.40;;;;;;5040808;28;20021;-35
2022/01/05 05:03:22;;;;;;;4.90;1.50;;;14.70;48.30;;;;;;5040797;28;20024;-35
2022/01/05 05:05:47;;;;;;;3.03;1.35;;;14.70;48.40;;;;;;5040017;28;20020;-35
2022/01/05 05:08:14;;;;;;;5.57;2.00;;;14.60;48.50;;;;;;5058349;28;20025;-35
2022/01/05 05:10:40;;;;;;;4.15;1.63;;;14.70;48.50;;;;;;5058074;28;20013;-35
2022/01/05 05:13:10;;;;;;;5.13;1.50;;;14.60;48.40;;;;;;5057437;28;20020;-35
2022/01/05 05:15:37;;;;;;;5.88;1.60;;;14.60;48.90;;;;;;5057529;28;20036;-36
2022/01/05 05:18:03;;;;;;;8.18;1.58;;;14.60;48.40;;;;;;5056633;28;20017;-36
2022/01/05 05:20:30;;;;;;;4.03;1.40;;;14.60;48.30;;;;;;5057190;28;20021;-36
2022/01/05 05:22:56;;;;;;;4.35;1.20;;;14.70;48.40;;;;;;5056759;28;20015;-37
2022/01/05 05:25:22;;;;;;;5.15;1.55;;;14.60;48.40;;;;;;5056677;28;20084;-36
2022/01/05 05:27:49;;;;;;;3.55;1.20;;;14.70;48.30;;;;;;5038550;28;20025;-35
2022/01/05 05:30:14;;;;;;;3.92;1.50;;;14.70;48.40;;;;;;5039556;28;20025;-37
2022/01/05 05:32:40;;;;;;;3.97;1.52;;;14.70;48.30;;;;;;5059798;28;20026;-37
2022/01/05 05:35:09;;;;;;;3.80;1.40;;;14.60;48.40;;;;;;5059229;28;20025;-36
2022/01/05 05:37:35;;;;;;;3.77;1.40;;;14.60;48.40;;;;;;5060212;28;20029;-37
2022/01/05 05:40:02;;;;;;;4.68;1.35;;;14.70;48.40;;;;;;5041106;28;20025;-38
2022/01/05 05:42:29;;;;;;;4.65;1.48;;;14.60;48.50;;;;;;5059588;28;20024;-36
2022/01/05 05:44:55;;;;;;;5.15;1.85;;;14.60;48.50;;;;;;5058070;28;20021;-36
2022/01/05 05:47:21;;;;;;;4.38;1.30;;;14.60;48.50;;;;;;5055142;28;20025;-36
2022/01/05 05:49:48;;;;;;;3.92;1.50;;;14.60;48.40;;;;;;5055509;28;20071;-36
2022/01/05 05:52:15;;;;;;;3.80;1.50;;;14.60;48.40;;;;;;5055669;28;20040;-35
2022/01/05 05:54:40;;;;;;;4.43;1.65;;;14.60;48.30;;;;;;5037399;28;20123;-35
2022/01/05 05:57:07;;;;;;;3.00;1.40;;;14.50;48.40;;;;;;5055211;28;20014;-36
2022/01/05 05:59:33;;;;;;;5.65;1.80;;;14.50;48.40;;;;;;5054577;28;20456;-39
2022/01/05 06:02:00;;;;;;;4.18;1.55;;;14.50;48.40;;;;;;5056607;28;20013;-37
2022/01/05 06:04:26;;;;;;;4.57;1.40;;;14.50;48.40;;;;;;5055991;28;20020;-37
2022/01/05 06:06:52;;;;;;;3.75;1.40;;;14.60;48.30;;;;;;5055471;28;20062;-38
2022/01/05 06:09:17;;;;;;;4.97;1.50;;;14.60;48.30;;;;;;5056481;28;20095;-37
2022/01/05 06:11:44;;;;;;;2.47;1.15;;;14.60;48.20;;;;;;5055910;28;20043;-37
2022/01/05 06:14:10;;;;;;;4.07;1.23;;;14.60;48.30;;;;;;5055932;28;20040;-38
2022/01/05 06:16:36;;;;;;;3.47;1.30;;;14.60;48.30;;;;;;5055782;28;20108;-39
2022/01/05 06:19:02;;;;;;;4.30;1.55;;;14.50;48.40;;;;;;5038317;28;20021;-39
2022/01/05 06:21:29;;;;;;;4.95;1.40;;;14.60;48.40;;;;;;5056433;28;20101;-38
2022/01/05 06:23:55;;;;;;;4.13;1.50;;;14.50;48.40;;;;;;5056574;28;20029;-42
2022/01/05 06:26:21;;;;;;;5.13;1.50;;;14.50;48.50;;;;;;5056280;28;20025;-42
2022/01/05 06:28:47;;;;;;;3.17;1.30;;;14.50;48.50;;;;;;5055785;28;20046;-41
2022/01/05 06:31:13;;;;;;;4.68;1.52;;;14.50;48.40;;;;;;5056172;28;20525;-39
2022/01/05 06:33:39;;;;;;;5.05;1.58;;;14.50;48.40;;;;;;5038442;28;20021;-39
2022/01/05 06:36:06;;;;;;;3.58;1.38;;;14.50;48.30;;;;;;5037456;28;20025;-40
2022/01/05 06:38:32;;;;;;;4.72;1.38;;;14.50;48.30;;;;;;5037197;28;20090;-40
2022/01/05 06:40:57;;;;;;;4.97;1.60;;;14.50;48.40;;;;;;5054786;28;20024;-42
2022/01/05 06:43:23;;;;;;;3.65;1.40;;;14.50;48.40;;;;;;5055332;28;20009;-40
2022/01/05 06:45:49;;;;;;;6.05;1.92;;;14.50;48.50;;;;;;5038500;28;20163;-39
2022/01/05 06:48:16;;;;;;;5.13;1.85;;;14.40;48.50;;;;;;5056550;28;20028;-40
2022/01/05 06:50:42;;;;;;;5.47;1.65;;;14.50;48.60;;;;;;5056398;28;20083;-41
2022/01/05 06:53:08;;;;;;;5.38;1.48;;;14.40;48.70;;;;;;5057030;28;20025;-40
2022/01/05 06:55:34;;;;;;;4.30;1.40;;;14.40;48.70;;;;;;5056620;28;20071;-41
2022/01/05 06:58:01;;;;;;;4.20;1.40;;;14.40;48.70;;;;;;5038900;28;20459;-40
2022/01/05 07:00:28;;;;;;;4.63;1.40;;;14.50;48.30;;;;;;5037352;28;20013;-40
2022/01/05 07:02:53;;;;;;;3.17;1.13;;;14.50;48.20;;;;;;5037572;28;20067;-39
2022/01/05 07:05:20;;;;;;;4.80;1.80;;;14.50;48.10;;;;;;5055095;28;20017;-41
2022/01/05 07:07:47;;;;;;;4.07;1.38;;;14.70;48.10;;;;;;5037061;28;20044;-40
2022/01/05 07:10:13;;;;;;;3.97;1.40;;;14.80;47.70;;;;;;5055031;28;20017;-42
2022/01/05 07:12:40;;;;;;;4.25;1.23;;;14.90;47.20;;;;;;5036995;28;20029;-39
2022/01/05 07:15:08;;;;;;;4.70;1.65;;;15.00;46.80;;;;;;5054888;28;20033;-39
2022/01/05 07:17:34;;;;;;;4.57;1.40;;;15.20;46.50;;;;;;5055025;28;20032;-40
2022/01/05 07:19:59;;;;;;;3.35;1.23;;;15.30;46.30;;;;;;5055015;28;20021;-36
2022/01/05 07:22:25;;;;;;;4.32;1.40;;;15.30;46.10;;;;;;5055357;28;20373;-36
2022/01/05 07:24:52;;;;;;;4.20;1.20;;;15.40;46.10;;;;;;5055407;28;20079;-35
2022/01/05 07:27:18;;;;;;;4.07;1.40;;;15.40;45.90;;;;;;5055337;28;20017;-35
2022/01/05 07:29:44;;;;;;;3.45;1.42;;;15.50;45.80;;;;;;5053829;28;20092;-35
2022/01/05 07:32:10;;;;;;;3.92;1.20;;;15.60;45.70;;;;;;5036164;28;20013;-36
2022/01/05 07:34:36;;;;;;;4.90;1.58;;;15.60;45.50;;;;;;5053460;28;20099;-36
2022/01/05 07:37:02;;;;;;;4.75;1.45;;;15.70;45.40;;;;;;5035336;28;20017;-36
2022/01/05 07:39:27;;;;;;;4.00;1.40;;;15.70;45.30;;;;;;5053515;28;20005;-35
2022/01/05 07:41:55;;;;;;;3.75;1.30;;;15.80;45.20;;;;;;5053621;28;20017;-36
2022/01/05 07:44:20;;;;;;;3.83;1.33;;;15.80;45.00;;;;;;5053550;28;20013;-35
2022/01/05 07:46:47;;;;;;;3.35;1.25;;;15.90;44.90;;;;;;5053545;28;20064;-35
2022/01/05 07:49:13;;;;;;;5.57;1.85;;;16.00;44.80;;;;;;5019722;28;20032;-35
2022/01/05 07:51:39;;;;;;;3.33;1.38;;;16.00;44.70;;;;;;5035130;28;20468;-36
2022/01/05 07:54:04;;;;;;;2.85;1.20;;;16.00;44.60;;;;;;5053062;28;20029;-35
2022/01/05 07:56:31;;;;;;;4.70;1.58;;;16.10;44.50;;;;;;5053769;28;20033;-36
2022/01/05 07:58:56;;;;;;;5.70;1.45;;;16.10;44.40;;;;;;5053805;28;20017;-36
2022/01/05 08:01:23;;;;;;;6.43;1.75;;;16.20;44.30;;;;;;5058209;28;20075;-36
2022/01/05 08:03:48;;;;;;;4.32;1.70;;;16.20;44.30;;;;;;5059524;28;20029;-37
2022/01/05 08:06:14;;;;;;;5.72;1.33;;;16.20;44.20;;;;;;5041763;28;20079;-35
2022/01/05 08:08:40;;;;;;;3.70;1.27;;;16.20;44.20;;;;;;5059425;28;20112;-36
2022/01/05 08:11:06;;;;;;;5.00;1.40;;;16.30;44.10;;;;;;5042311;28;20493;-37
2022/01/05 08:13:32;;;;;;;4.57;1.50;;;16.30;44.00;;;;;;5059588;28;20009;-35
2022/01/05 08:15:59;;;;;;;4.93;1.35;;;16.30;43.90;;;;;;5057117;28;20029;-35
2022/01/05 08:18:25;;;;;;;4.82;1.50;;;16.30;43.90;;;;;;5056845;28;20024;-35
2022/01/05 08:20:51;;;;;;;4.40;1.30;;;16.40;43.90;;;;;;5057042;28;20017;-35
2022/01/05 08:23:17;;;;;;;3.97;1.30;;;16.40;43.80;;;;;;5056486;28;20017;-35
2022/01/05 08:25:43;;;;;;;5.47;1.60;;;16.40;43.80;;;;;;5057005;28;20017;-35
2022/01/05 08:28:11;;;;;;;5.88;1.52;;;16.50;43.70;;;;;;5056729;28;20019;-35
2022/01/05 08:30:37;;;;;;;6.93;1.75;;;16.50;43.60;;;;;;5038743;28;20033;-35
2022/01/05 08:33:03;;;;;;;7.75;1.52;;;16.50;43.60;;;;;;5039023;28;20017;-35
2022/01/05 08:35:29;;;;;;;5.40;1.45;;;16.50;43.60;;;;;;5056071;28;20033;-35
2022/01/05 08:37:54;;;;;;;5.20;1.40;;;16.60;43.50;;;;;;5055822;28;20021;-36
2022/01/05 08:40:21;;;;;;;7.78;1.80;;;16.60;43.40;;;;;;5056180;28;20017;-35
2022/01/05 08:42:47;;;;;;;6.35;1.65;;;16.60;43.40;;;;;;5056004;28;20013;-35
2022/01/05 08:45:15;;;;;;;4.00;1.65;;;16.70;43.30;;;;;;5056266;28;20020;-35
2022/01/05 08:47:45;;;;;;;6.75;1.60;;;16.70;43.30;;;;;;5055851;28;20490;-35
2022/01/05 08:50:11;;;;;;;4.97;1.50;;;16.60;43.30;;;;;;5055654;28;20032;-36
2022/01/05 08:52:37;;;;;;;8.27;1.48;;;16.70;43.30;;;;;;5055622;28;20039;-36
2022/01/05 08:55:03;;;;;;;6.70;1.50;;;16.70;43.20;;;;;;5025956;28;20169;-35
2022/01/05 08:57:29;;;;;;;6.45;1.70;;;16.70;43.20;;;;;;5015865;28;20037;-35
2022/01/05 08:59:56;;;;;;;7.22;1.80;;;16.80;43.20;;;;;;5014859;28;20524;-37
2022/01/05 09:02:21;;;;;;;7.75;1.50;;;16.80;43.30;;;;;;5015853;28;20101;-38
2022/01/05 09:04:51;;;;;;;7.40;1.73;;;16.80;43.20;;;;;;5015866;28;20026;-37
2022/01/05 09:07:17;;;;;;;9.33;1.53;;;16.80;43.20;;;;;;5015818;28;20037;-38
2022/01/05 09:09:43;;;;;;;7.90;1.50;;;16.80;43.20;;;;;;5015675;28;20362;-38
2022/01/05 09:12:10;;;;;;;8.43;1.80;;;16.80;43.20;;;;;;5015254;28;20037;-37
2022/01/05 09:14:35;;;;;;;12.07;2.13;;;16.80;43.20;;;;;;5015817;28;20097;-37
2022/01/05 09:17:01;;;;;;;6.78;1.60;;;16.80;43.20;;;;;;5014642;28;20105;-37
2022/01/05 09:19:28;;;;;;;6.07;2.00;;;16.80;43.20;;;;;;5016133;28;20010;-41
2022/01/05 09:21:54;;;;;;;10.85;2.60;;;16.90;43.20;;;;;;5015002;28;20028;-39
2022/01/05 09:24:20;;;;;;;7.80;1.55;;;16.90;43.20;;;;;;5014633;28;20026;-39
2022/01/05 09:26:46;;;;;;;7.47;1.50;;;16.90;43.20;;;;;;5014974;28;20026;-38
2022/01/05 09:29:12;;;;;;;8.15;2.00;;;16.90;43.20;;;;;;5015878;28;20017;-39
2022/01/05 09:31:38;;;;;;;9.63;1.60;;;16.90;43.20;;;;;;5015629;28;20461;-38
2022/01/05 09:34:05;;;;;;;7.70;1.92;;;16.90;43.20;;;;;;5014402;28;20022;-39
2022/01/05 09:36:40;;;;;;;7.80;1.60;;;16.90;43.20;;;;;;5014128;28;20030;-39
2022/01/05 09:42:05;;;;;;;6.88;1.70;;;16.90;43.20;;;;;;5015534;28;20033;-40
2022/01/05 09:44:49;;;;;;;7.82;1.77;;;16.90;43.20;;;;;;5015184;28;20458;-39
2022/01/05 09:47:47;;;;;;;6.93;2.00;;;17.00;43.20;;;;;;5013541;28;20010;-39
2022/01/05 09:50:13;;;;;;;8.48;2.15;;;17.00;43.20;;;;;;5014753;28;20125;-40
2022/01/05 09:52:41;;;;;;;5.72;1.65;;;17.00;43.30;;;;;;5013825;28;20509;-40
2022/01/05 09:55:11;;;;;;;6.20;1.83;;;17.00;43.20;;;;;;5034105;28;20051;-40
2022/01/05 09:57:38;;;;;;;8.38;1.88;;;17.00;43.20;;;;;;5055029;28;20009;-40
2022/01/05 10:00:05;;;;;;;7.93;1.70;;;17.00;43.20;;;;;;5037055;28;20013;-42
2022/01/05 10:02:32;;;;;;;6.90;1.40;;;17.10;43.20;;;;;;5036893;28;20033;-40
2022/01/05 10:04:58;;;;;;;8.20;1.70;;;17.10;43.20;;;;;;5054825;28;20021;-40
2022/01/05 10:07:24;;;;;;;6.50;1.90;;;17.10;43.10;;;;;;5055007;28;20536;-40
2022/01/05 10:09:50;;;;;;;8.88;2.03;;;17.10;43.10;;;;;;5055044;28;20024;-42
2022/01/05 10:12:16;;;;;;;7.28;1.92;;;17.10;43.10;;;;;;5036767;28;20048;-40
2022/01/05 10:14:44;;;;;;;5.43;1.65;;;17.10;43.10;;;;;;5054536;28;20490;-40
2022/01/05 10:17:15;;;;;;;8.65;1.48;;;17.20;43.00;;;;;;5053978;28;20547;-41
2022/01/05 10:19:43;;;;;;;7.50;1.55;;;17.20;43.00;;;;;;5054016;28;20048;-40
2022/01/05 10:22:44;;;;;;;5.97;1.95;;;17.20;43.00;;;;;;5053088;28;20017;-41
2022/01/05 10:25:15;;;;;;;6.45;1.50;;;17.20;42.90;;;;;;4954032;29;20522;-40
2022/01/05 10:27:41;;;;;;;9.05;1.77;;;17.20;42.80;;;;;;4954045;29;20038;-40
2022/01/05 10:30:10;;;;;;;8.60;1.50;;;17.20;42.80;;;;;;4954625;29;20035;-40
2022/01/05 10:32:37;;;;;;;6.95;1.95;;;17.20;42.80;;;;;;4955041;29;20023;-40
2022/01/05 10:35:14;;;;;;;5.75;1.60;;;17.20;42.80;;;;;;4954965;29;20546;-40
2022/01/05 10:37:45;;;;;;;6.20;1.60;;;17.20;42.90;;;;;;4954632;29;20011;-40
2022/01/05 10:40:19;;;;;;;6.82;1.85;;;17.20;42.90;;;;;;4954322;29;20178;-36
2022/01/05 10:42:45;;;;;;;4.70;1.50;;;17.20;42.80;;;;;;4954298;29;20454;-35
2022/01/05 10:45:14;;;;;;;4.93;1.80;;;17.20;42.80;;;;;;4954236;29;20498;-36
2022/01/05 10:47:41;;;;;;;5.85;1.98;;;17.20;42.90;;;;;;4953688;29;20541;-36
2022/01/05 10:50:11;;;;;;;8.07;1.73;;;17.20;42.90;;;;;;4938281;29;20088;-35
2022/01/05 10:52:36;;;;;;;9.32;1.90;;;17.20;43.00;;;;;;4954186;29;20086;-35
2022/01/05 10:55:13;;;;;;;6.25;1.60;;;17.20;43.00;;;;;;4954016;29;20047;-36
2022/01/05 10:57:53;;;;;;;6.13;1.80;;;17.20;43.00;;;;;;4953680;29;20047;-35
2022/01/05 11:00:29;;;;;;;5.47;1.45;;;17.30;43.00;;;;;;4988910;28;20032;-35
2022/01/05 11:02:54;;;;;;;7.03;1.63;;;17.30;43.00;;;;;;5036965;28;20005;-35
2022/01/05 11:05:21;;;;;;;8.80;1.85;;;17.30;42.90;;;;;;5053469;28;20029;-36
2022/01/05 11:07:47;;;;;;;7.85;2.08;;;17.20;42.90;;;;;;5053417;28;20017;-36
2022/01/05 11:10:18;;;;;;;6.85;1.80;;;17.30;42.90;;;;;;5035761;28;20025;-36
2022/01/05 11:12:57;;;;;;;10.00;1.77;;;17.30;42.90;;;;;;5053902;28;20024;-36
2022/01/05 11:15:28;;;;;;;6.55;1.98;;;17.30;42.90;;;;;;5050325;28;20104;-36
2022/01/05 11:18:16;;;;;;;6.50;1.48;;;17.30;42.90;;;;;;5053493;28;20472;-36
2022/01/05 11:20:55;;;;;;;7.90;1.70;;;17.30;42.90;;;;;;5053508;28;20037;-35
2022/01/05 11:23:22;;;;;;;6.90;1.60;;;17.20;42.90;;;;;;5053720;28;20009;-35
2022/01/05 11:25:48;;;;;;;7.65;1.80;;;17.20;43.00;;;;;;5053744;28;20041;-37
2022/01/05 11:28:15;;;;;;;7.20;1.80;;;17.20;43.10;;;;;;5036302;28;20025;-36
2022/01/05 11:30:42;;;;;;;5.45;1.50;;;17.20;43.10;;;;;;5053168;28;20017;-35
2022/01/05 11:33:08;;;;;;;7.82;1.80;;;17.20;43.20;;;;;;5053098;28;20475;-35
2022/01/05 11:35:34;;;;;;;5.60;1.92;;;17.10;43.20;;;;;;5057824;28;20052;-35
2022/01/05 11:38:01;;;;;;;5.95;1.77;;;17.10;43.30;;;;;;5057204;28;20013;-36
2022/01/05 11:40:27;;;;;;;6.63;1.55;;;17.10;43.40;;;;;;5056817;28;20017;-35
2022/01/05 11:43:01;;;;;;;8.70;2.00;;;17.00;43.40;;;;;;5057404;28;20040;-35
2022/01/05 11:45:45;;;;;;;7.75;1.60;;;17.00;43.40;;;;;;5058053;28;20040;-36
2022/01/05 11:48:33;;;;;;;5.85;1.70;;;17.00;43.60;;;;;;5058099;28;20013;-36
2022/01/05 11:51:03;;;;;;;4.80;1.63;;;16.90;43.80;;;;;;5058615;28;20107;-36
2022/01/05 11:53:39;;;;;;;5.15;1.60;;;16.90;43.80;;;;;;5058319;28;20103;-36
2022/01/05 11:56:26;;;;;;;7.00;1.80;;;16.80;44.00;;;;;;5058295;28;20045;-36
2022/01/05 11:59:02;;;;;;;6.35;1.55;;;16.80;44.10;;;;;;5057953;28;20029;-36
2022/01/05 12:01:35;;;;;;;5.50;1.70;;;16.80;44.20;;;;;;5056119;28;20009;-36
2022/01/05 12:04:05;;;;;;;5.95;1.70;;;16.70;44.30;;;;;;5056052;28;20013;-35
2022/01/05 12:07:00;;;;;;;7.63;2.10;;;16.70;44.40;;;;;;5056346;28;20013;-35
2022/01/05 12:09:27;;;;;;;6.45;1.63;;;16.70;44.30;;;;;;5042083;28;20116;-35
2022/01/05 12:11:53;;;;;;;4.28;1.40;;;16.60;44.40;;;;;;5056264;28;20021;-35
2022/01/05 12:14:22;;;;;;;5.38;1.70;;;16.60;44.60;;;;;;5056337;28;20498;-35
2022/01/05 12:17:00;;;;;;;4.97;1.38;;;16.50;44.70;;;;;;5056770;28;20032;-36
2022/01/05 12:19:26;;;;;;;6.63;1.58;;;16.50;44.70;;;;;;5056873;28;20039;-38
2022/01/05 12:21:54;;;;;;;4.78;1.80;;;16.50;44.70;;;;;;5056893;28;20020;-37
2022/01/05 12:24:20;;;;;;;5.47;1.92;;;16.50;44.80;;;;;;5056948;28;20040;-38
2022/01/05 12:27:16;;;;;;;6.03;1.60;;;16.50;44.90;;;;;;5056525;28;20056;-38
2022/01/05 12:29:43;;;;;;;7.00;1.55;;;16.40;44.90;;;;;;5047767;28;20029;-37
2022/01/05 12:32:08;;;;;;;6.40;1.45;;;16.30;44.90;;;;;;5039438;28;20476;-37
2022/01/05 12:34:57;;;;;;;7.93;2.00;;;16.30;45.00;;;;;;5057468;28;20020;-37
2022/01/05 12:37:56;;;;;;;7.10;1.48;;;16.30;45.10;;;;;;5057563;28;20025;-37
2022/01/05 12:40:27;;;;;;;5.30;1.65;;;16.30;45.20;;;;;;5057295;28;20025;-39
2022/01/05 12:43:08;;;;;;;6.07;1.70;;;16.20;45.80;;;;;;5038444;28;20019;-38
2022/01/05 12:45:52;;;;;;;6.43;1.70;;;16.20;45.30;;;;;;5055782;28;20514;-39
2022/01/05 12:48:35;;;;;;;4.53;1.38;;;16.20;45.40;;;;;;5057697;28;20086;-38
2022/01/05 12:51:20;;;;;;;5.50;1.83;;;16.20;45.50;;;;;;5057935;28;20104;-39
2022/01/05 12:54:00;;;;;;;5.78;2.00;;;16.20;45.50;;;;;;5056115;28;20025;-39